createdAt,value
2018-09-27T09:25:17.025Z,1022.67
2018-09-27T09:26:16.971Z,1022.73
2018-09-27T09:28:49.367Z,1022.87
2018-09-27T09:29:49.353Z,1022.65
2018-09-27T09:30:49.320Z,1022.71
2018-09-27T09:31:49.307Z,1022.67
2018-09-27T09:32:49.294Z,1022.69
2018-09-27T09:33:49.344Z,1022.72
2018-09-27T09:34:49.273Z,1022.68
2018-09-27T09:35:49.283Z,1022.70
2018-09-27T09:36:49.251Z,1022.67
2018-09-27T09:37:49.245Z,1022.67
2018-09-27T09:38:49.226Z,1022.64
2018-09-27T09:39:49.230Z,1022.68
2018-09-27T09:40:49.213Z,1022.71
2018-09-27T09:41:49.213Z,1022.64
2018-09-27T09:42:49.227Z,1022.61
2018-09-27T09:43:49.176Z,1022.65
2018-09-27T09:44:49.224Z,1022.59
2018-09-27T09:45:49.185Z,1022.67
2018-09-27T09:46:49.146Z,1022.64
2018-09-27T09:47:49.150Z,1022.59
2018-09-27T09:48:49.125Z,1022.53
2018-09-27T09:49:49.107Z,1022.68
2018-09-27T09:50:49.115Z,1022.65
2018-09-27T09:51:49.091Z,1022.66
2018-09-27T09:52:49.079Z,1022.68
2018-09-27T09:53:49.060Z,1022.67
2018-09-27T09:54:49.055Z,1022.67
2018-09-27T09:55:49.055Z,1022.71
2018-09-27T09:56:49.027Z,1022.70
2018-09-27T09:57:49.025Z,1022.67
2018-09-27T09:58:49.012Z,1022.67
2018-09-27T09:59:48.998Z,1022.71
2018-09-27T10:00:49.012Z,1022.70
2018-09-27T10:01:48.971Z,1022.63
2018-09-27T10:02:48.988Z,1022.64
2018-09-27T10:03:48.974Z,1022.63
2018-09-27T10:04:48.945Z,1022.65
2018-09-27T10:05:48.984Z,1022.59
2018-09-27T10:06:48.967Z,1022.59
2018-09-27T10:07:48.947Z,1022.53
2018-09-27T10:08:48.963Z,1022.52
2018-09-27T10:09:48.905Z,1022.59
2018-09-27T10:10:48.871Z,1022.56
2018-09-27T10:11:48.876Z,1022.50
2018-09-27T10:12:48.881Z,1022.51
2018-09-27T10:13:48.842Z,1022.49
2018-09-27T10:14:48.839Z,1022.54
2018-09-27T10:15:48.818Z,1022.48
2018-09-27T10:16:48.809Z,1022.50
2018-09-27T10:17:48.824Z,1022.50
2018-09-27T10:18:48.818Z,1022.44
2018-09-27T10:19:48.783Z,1022.40
2018-09-27T10:20:48.759Z,1022.37
2018-09-27T10:21:48.890Z,1022.45
2018-09-27T10:22:48.750Z,1022.41
2018-09-27T10:23:48.756Z,1022.32
2018-09-27T10:24:48.719Z,1022.41
2018-09-27T10:25:48.717Z,1022.36
2018-09-27T10:26:48.714Z,1022.33
2018-09-27T10:27:48.692Z,1022.36
2018-09-27T10:28:48.704Z,1022.39
2018-09-27T10:29:48.697Z,1022.29
2018-09-27T10:30:48.701Z,1022.32
2018-09-27T10:31:48.690Z,1022.30
2018-09-27T10:32:48.629Z,1022.27
2018-09-27T10:33:48.682Z,1022.26
2018-09-27T10:34:48.612Z,1022.33
2018-09-27T10:35:48.604Z,1022.29
2018-09-27T10:36:48.605Z,1022.29
2018-09-27T10:37:48.579Z,1022.28
2018-09-27T10:38:48.629Z,1022.25
2018-09-27T10:39:48.570Z,1022.31
2018-09-27T10:40:48.547Z,1022.27
2018-09-27T10:41:48.541Z,1022.32
2018-09-27T10:42:48.570Z,1022.30
2018-09-27T10:43:48.552Z,1022.24
2018-09-27T10:44:48.551Z,1022.21
2018-09-27T10:45:48.488Z,1022.22
2018-09-27T10:46:48.477Z,1022.19
2018-09-27T10:47:48.492Z,1022.19
2018-09-27T10:48:48.566Z,1022.15
2018-09-27T10:49:48.467Z,1022.16
2018-09-27T10:50:48.445Z,1022.15
2018-09-27T10:51:48.453Z,1022.12
2018-09-27T10:52:48.410Z,1022.11
2018-09-27T10:53:48.481Z,1022.13
2018-09-27T10:54:48.390Z,1022.13
2018-09-27T10:55:48.378Z,1022.11
2018-09-27T10:56:48.376Z,1022.14
2018-09-27T10:57:48.381Z,1022.05
2018-09-27T10:58:48.349Z,1022.18
2018-09-27T10:59:48.357Z,1022.05
2018-09-27T11:00:48.373Z,1022.06
2018-09-27T11:01:48.318Z,1022.03
2018-09-27T11:02:48.307Z,1022.08
2018-09-27T11:03:48.292Z,1021.97
2018-09-27T11:04:48.345Z,1022.00
2018-09-27T11:05:48.282Z,1022.05
2018-09-27T11:06:48.257Z,1022.05
2018-09-27T11:07:48.250Z,1022.04
2018-09-27T11:08:48.235Z,1021.99
2018-09-27T11:09:48.253Z,1022.03
2018-09-27T11:10:48.213Z,1021.98
2018-09-27T11:11:48.208Z,1021.94
2018-09-27T11:12:48.191Z,1021.94
2018-09-27T11:13:48.180Z,1021.90
2018-09-27T11:14:48.197Z,1021.95
2018-09-27T11:15:48.172Z,1021.91
2018-09-27T11:16:48.169Z,1021.82
2018-09-27T11:17:48.136Z,1021.84
2018-09-27T11:18:48.126Z,1021.83
2018-09-27T11:19:48.120Z,1021.82
2018-09-27T11:20:48.123Z,1021.80
2018-09-27T11:21:48.124Z,1021.78
2018-09-27T11:22:48.079Z,1021.79
2018-09-27T11:23:48.068Z,1021.81
2018-09-27T11:24:48.078Z,1021.75
2018-09-27T11:25:48.080Z,1021.76
2018-09-27T11:26:48.064Z,1021.74
2018-09-27T11:27:48.055Z,1021.71
2018-09-27T11:28:48.048Z,1021.75
2018-09-27T11:29:48.028Z,1021.68
2018-09-27T11:30:48.013Z,1021.70
2018-09-27T11:31:48.002Z,1021.73
2018-09-27T11:32:47.969Z,1021.64
2018-09-27T11:33:47.960Z,1021.63
2018-09-27T11:34:47.962Z,1021.68
2018-09-27T11:35:47.939Z,1021.58
2018-09-27T11:36:47.926Z,1021.60
2018-09-27T11:37:47.932Z,1021.55
2018-09-27T11:38:47.945Z,1021.60
2018-09-27T11:39:47.936Z,1021.55
2018-09-27T11:40:47.888Z,1021.52
2018-09-27T11:41:47.879Z,1021.50
2018-09-27T11:42:47.950Z,1021.44
2018-09-27T11:43:47.885Z,1021.51
2018-09-27T11:44:47.863Z,1021.53
2018-09-27T11:45:47.832Z,1021.47
2018-09-27T11:46:47.828Z,1021.57
2018-09-27T11:47:47.827Z,1021.53
2018-09-27T11:48:47.831Z,1021.52
2018-09-27T11:49:47.835Z,1021.44
2018-09-27T11:50:47.791Z,1021.41
2018-09-27T11:51:47.760Z,1021.41
2018-09-27T11:52:47.761Z,1021.43
2018-09-27T11:53:47.742Z,1021.35
2018-09-27T11:54:47.763Z,1021.35
2018-09-27T11:55:47.725Z,1021.35
2018-09-27T11:56:47.704Z,1021.36
2018-09-27T11:57:47.695Z,1021.37
2018-09-27T11:58:47.714Z,1021.34
2018-09-27T11:59:47.668Z,1021.31
2018-09-27T12:00:47.680Z,1021.28
2018-09-27T12:01:47.652Z,1021.32
2018-09-27T12:02:47.657Z,1021.29
2018-09-27T12:03:47.645Z,1021.25
2018-09-27T12:04:47.617Z,1021.28
2018-09-27T12:05:47.614Z,1021.20
2018-09-27T12:06:47.662Z,1021.23
2018-09-27T12:07:47.590Z,1021.24
2018-09-27T12:08:47.576Z,1021.24
2018-09-27T12:09:47.571Z,1021.20
2018-09-27T12:10:47.543Z,1021.26
2018-09-27T12:11:47.558Z,1021.17
2018-09-27T12:12:47.530Z,1021.15
2018-09-27T12:13:47.522Z,1021.12
2018-09-27T12:14:47.552Z,1021.11
2018-09-27T12:15:47.494Z,1021.14
2018-09-27T12:16:47.502Z,1021.10
2018-09-27T12:17:47.467Z,1021.07
2018-09-27T12:18:47.472Z,1021.10
2018-09-27T12:19:47.551Z,1021.04
2018-09-27T12:20:47.464Z,1021.07
2018-09-27T12:21:47.420Z,1021.04
2018-09-27T12:22:47.409Z,1021.07
2018-09-27T12:23:47.398Z,1020.99
2018-09-27T12:24:47.432Z,1020.96
2018-09-27T12:25:47.411Z,1020.97
2018-09-27T12:26:47.376Z,1020.95
2018-09-27T12:27:47.352Z,1020.91
2018-09-27T12:28:47.354Z,1020.93
2018-09-27T12:29:47.352Z,1020.92
2018-09-27T12:30:47.350Z,1020.96
2018-09-27T12:31:47.315Z,1020.93
2018-09-27T12:32:47.322Z,1020.91
2018-09-27T12:33:47.289Z,1020.89
2018-09-27T12:34:47.308Z,1020.86
2018-09-27T12:35:47.315Z,1020.89
2018-09-27T12:36:47.261Z,1020.88
2018-09-27T12:37:47.244Z,1020.86
2018-09-27T12:38:47.253Z,1020.86
2018-09-27T12:39:47.230Z,1020.86
2018-09-27T12:40:47.337Z,1020.85
2018-09-27T12:41:47.338Z,1020.80
2018-09-27T12:42:47.211Z,1020.75
2018-09-27T12:43:47.177Z,1020.73
2018-09-27T12:44:47.165Z,1020.70
2018-09-27T12:45:47.278Z,1020.70
2018-09-27T12:46:47.315Z,1020.72
2018-09-27T12:47:47.141Z,1020.66
2018-09-27T12:48:47.264Z,1020.66
2018-09-27T12:49:47.113Z,1020.69
2018-09-27T12:50:47.121Z,1020.66
2018-09-27T12:51:47.327Z,1020.70
2018-09-27T12:52:47.143Z,1020.68
2018-09-27T12:53:47.080Z,1020.69
2018-09-27T12:54:47.055Z,1020.66
2018-09-27T12:55:47.070Z,1020.61
2018-09-27T12:56:47.037Z,1020.60
2018-09-27T12:57:47.049Z,1020.58
2018-09-27T12:58:47.014Z,1020.55
2018-09-27T12:59:46.996Z,1020.55
2018-09-27T13:00:47.005Z,1020.57
2018-09-27T13:01:47.077Z,1020.52
2018-09-27T13:02:47.075Z,1020.52
2018-09-27T13:03:46.965Z,1020.50
2018-09-27T13:04:46.940Z,1020.45
2018-09-27T13:05:46.954Z,1020.45
2018-09-27T13:06:46.941Z,1020.45
2018-09-27T13:07:46.922Z,1020.40
2018-09-27T13:08:47.150Z,1020.36
2018-09-27T13:09:47.033Z,1020.40
2018-09-27T13:10:46.917Z,1020.33
2018-09-27T13:11:46.866Z,1020.35
2018-09-27T13:12:46.887Z,1020.37
2018-09-27T13:13:46.844Z,1020.38
2018-09-27T13:14:46.933Z,1020.34
2018-09-27T13:15:46.855Z,1020.36
2018-09-27T13:16:46.816Z,1020.30
2018-09-27T13:17:46.904Z,1020.27
2018-09-27T13:18:46.806Z,1020.32
2018-09-27T13:19:46.891Z,1020.31
2018-09-27T13:20:46.802Z,1020.27
2018-09-27T13:21:46.784Z,1020.21
2018-09-27T13:22:46.777Z,1020.20
2018-09-27T13:23:46.754Z,1020.16
2018-09-27T13:24:46.763Z,1020.14
2018-09-27T13:25:46.786Z,1020.16
2018-09-27T13:26:47.140Z,1020.18
2018-09-27T13:27:46.701Z,1020.14
2018-09-27T13:28:46.701Z,1020.14
2018-09-27T13:29:46.691Z,1020.10
2018-09-27T13:30:46.668Z,1020.10
2018-09-27T13:31:46.686Z,1020.05
2018-09-27T13:32:46.629Z,1020.02
2018-09-27T13:33:46.622Z,1019.99
2018-09-27T13:34:46.626Z,1019.98
2018-09-27T13:35:46.607Z,1020.04
2018-09-27T13:36:46.598Z,1020.00
2018-09-27T13:37:46.583Z,1020.00
2018-09-27T13:38:46.599Z,1019.94
2018-09-27T13:39:46.609Z,1019.92
2018-09-27T13:40:46.546Z,1019.85
2018-09-27T13:41:46.536Z,1019.84
2018-09-27T13:42:46.523Z,1019.89
2018-09-27T13:43:46.545Z,1019.78
2018-09-27T13:44:46.503Z,1019.77
2018-09-27T13:45:46.506Z,1019.77
2018-09-27T13:46:46.479Z,1019.76
2018-09-27T13:47:46.494Z,1019.73
2018-09-27T13:48:46.490Z,1019.78
2018-09-27T13:49:46.515Z,1019.70
2018-09-27T13:50:46.443Z,1019.69
2018-09-27T13:51:46.472Z,1019.66
2018-09-27T13:52:46.411Z,1019.70
2018-09-27T13:53:46.421Z,1019.70
2018-09-27T13:54:46.395Z,1019.69
2018-09-27T13:55:46.374Z,1019.65
2018-09-27T13:56:46.380Z,1019.65
2018-09-27T13:57:46.350Z,1019.60
2018-09-27T13:58:46.360Z,1019.57
2018-09-27T13:59:46.348Z,1019.57
2018-09-27T14:00:46.326Z,1019.62
2018-09-27T14:01:46.309Z,1019.57
2018-09-27T14:02:46.297Z,1019.55
2018-09-27T14:03:46.289Z,1019.55
2018-09-27T14:04:46.294Z,1019.51
2018-09-27T14:05:46.266Z,1019.51
2018-09-27T14:06:46.252Z,1019.50
2018-09-27T14:07:46.237Z,1019.46
2018-09-27T14:08:46.246Z,1019.40
2018-09-27T14:09:46.240Z,1019.42
2018-09-27T14:10:46.232Z,1019.38
2018-09-27T14:11:46.192Z,1019.30
2018-09-27T14:12:46.181Z,1019.34
2018-09-27T14:13:46.181Z,1019.35
2018-09-27T14:14:46.205Z,1019.36
2018-09-27T14:15:46.186Z,1019.35
2018-09-27T14:16:46.165Z,1019.32
2018-09-27T14:17:46.128Z,1019.32
2018-09-27T14:18:46.112Z,1019.29
2018-09-27T14:19:46.116Z,1019.29
2018-09-27T14:20:46.110Z,1019.30
2018-09-27T14:21:46.113Z,1019.24
2018-09-27T14:22:46.068Z,1019.25
2018-09-27T14:23:46.073Z,1019.21
2018-09-27T14:24:46.081Z,1019.19
2018-09-27T14:25:46.175Z,1019.19
2018-09-27T14:26:46.048Z,1019.19
2018-09-27T14:27:46.082Z,1019.18
2018-09-27T14:28:46.004Z,1019.16
2018-09-27T14:29:46.654Z,1019.14
2018-09-27T14:30:46.080Z,1019.13
2018-09-27T14:31:45.989Z,1019.12
2018-09-27T14:32:45.971Z,1019.04
2018-09-27T14:33:45.951Z,1019.03
2018-09-27T14:34:45.936Z,1018.98
2018-09-27T14:35:45.964Z,1019.05
2018-09-27T14:36:46.001Z,1019.01
2018-09-27T14:37:45.939Z,1018.95
2018-09-27T14:38:45.939Z,1018.96
2018-09-27T14:39:45.876Z,1018.86
2018-09-27T14:40:45.869Z,1018.81
2018-09-27T14:41:45.956Z,1018.79
2018-09-27T14:42:45.928Z,1018.79
2018-09-27T14:43:45.832Z,1018.83
2018-09-27T14:44:45.819Z,1018.70
2018-09-27T14:45:45.825Z,1018.83
2018-09-27T14:46:45.850Z,1018.71
2018-09-27T14:47:45.837Z,1018.69
2018-09-27T14:48:45.783Z,1018.70
2018-09-27T14:49:45.765Z,1018.66
2018-09-27T14:50:45.753Z,1018.62
2018-09-27T14:51:45.746Z,1018.58
2018-09-27T14:52:45.833Z,1018.65
2018-09-27T14:53:45.787Z,1018.63
2018-09-27T14:54:45.766Z,1018.67
2018-09-27T14:55:45.696Z,1018.59
2018-09-27T14:56:45.695Z,1018.59
2018-09-27T14:57:45.714Z,1018.59
2018-09-27T14:58:45.750Z,1018.61
2018-09-27T14:59:45.668Z,1018.56
2018-09-27T15:00:45.707Z,1018.56
2018-09-27T15:01:45.630Z,1018.58
2018-09-27T15:02:45.650Z,1018.48
2018-09-27T15:03:45.657Z,1018.51
2018-09-27T15:04:45.750Z,1018.51
2018-09-27T15:05:45.591Z,1018.48
2018-09-27T15:06:45.665Z,1018.44
2018-09-27T15:07:45.562Z,1018.40
2018-09-27T15:08:45.594Z,1018.43
2018-09-27T15:09:45.746Z,1018.43
2018-09-27T15:10:45.541Z,1018.39
2018-09-27T15:11:45.517Z,1018.41
2018-09-27T15:12:45.663Z,1018.35
2018-09-27T15:13:45.512Z,1018.35
2018-09-27T15:14:45.511Z,1018.35
2018-09-27T15:15:45.470Z,1018.33
2018-09-27T15:16:45.463Z,1018.33
2018-09-27T15:17:45.475Z,1018.22
2018-09-27T15:18:45.470Z,1018.21
2018-09-27T15:19:45.432Z,1018.13
2018-09-27T15:20:45.417Z,1018.18
2018-09-27T15:21:45.407Z,1018.18
2018-09-27T15:22:45.447Z,1018.14
2018-09-27T15:23:45.391Z,1018.09
2018-09-27T15:24:45.429Z,1018.14
2018-09-27T15:25:45.373Z,1018.12
2018-09-27T15:26:45.353Z,1018.11
2018-09-27T15:27:45.347Z,1018.20
2018-09-27T15:28:45.334Z,1018.07
2018-09-27T15:29:45.340Z,1018.09
2018-09-27T15:30:45.345Z,1018.04
2018-09-27T15:31:45.353Z,1018.03
2018-09-27T15:32:45.282Z,1017.97
2018-09-27T15:33:45.305Z,1018.03
2018-09-27T15:34:45.301Z,1017.98
2018-09-27T15:35:45.256Z,1017.97
2018-09-27T15:36:45.259Z,1017.99
2018-09-27T15:37:45.227Z,1017.95
2018-09-27T15:38:45.224Z,1017.96
2018-09-27T15:39:45.211Z,1017.97
2018-09-27T15:40:45.220Z,1017.97
2018-09-27T15:41:45.201Z,1017.95
2018-09-27T15:42:45.173Z,1017.95
2018-09-27T15:43:45.160Z,1017.92
2018-09-27T15:44:45.150Z,1017.93
2018-09-27T15:45:45.252Z,1017.91
2018-09-27T15:46:45.134Z,1017.92
2018-09-27T15:47:45.118Z,1017.89
2018-09-27T15:48:45.125Z,1017.84
2018-09-27T15:49:45.092Z,1017.91
2018-09-27T15:50:45.125Z,1017.83
2018-09-27T15:51:45.075Z,1017.84
2018-09-27T15:52:45.084Z,1017.79
2018-09-27T15:53:45.059Z,1017.83
2018-09-27T15:54:45.039Z,1017.79
2018-09-27T15:55:45.074Z,1017.81
2018-09-27T15:56:45.043Z,1017.79
2018-09-27T15:57:45.014Z,1017.79
2018-09-27T15:58:45.041Z,1017.80
2018-09-27T15:59:44.981Z,1017.69
2018-09-27T16:00:44.984Z,1017.69
2018-09-27T16:01:44.987Z,1017.67
2018-09-27T16:02:44.954Z,1017.62
2018-09-27T16:03:44.951Z,1017.64
2018-09-27T16:04:45.011Z,1017.65
2018-09-27T16:05:44.915Z,1017.64
2018-09-27T16:06:44.920Z,1017.67
2018-09-27T16:07:44.898Z,1017.66
2018-09-27T16:08:44.893Z,1017.60
2018-09-27T16:09:44.886Z,1017.59
2018-09-27T16:10:44.860Z,1017.58
2018-09-27T16:11:44.975Z,1017.60
2018-09-27T16:12:44.854Z,1017.62
2018-09-27T16:13:44.843Z,1017.56
2018-09-27T16:14:44.914Z,1017.64
2018-09-27T16:15:44.806Z,1017.64
2018-09-27T16:16:44.798Z,1017.53
2018-09-27T16:17:44.884Z,1017.62
2018-09-27T16:18:44.768Z,1017.58
2018-09-27T16:19:44.794Z,1017.57
2018-09-27T16:20:44.747Z,1017.59
2018-09-27T16:21:44.734Z,1017.58
2018-09-27T16:22:44.782Z,1017.59
2018-09-27T16:23:44.727Z,1017.55
2018-09-27T16:24:44.715Z,1017.55
2018-09-27T16:25:44.713Z,1017.57
2018-09-27T16:26:44.685Z,1017.57
2018-09-27T16:27:44.754Z,1017.54
2018-09-27T16:28:44.661Z,1017.56
2018-09-27T16:29:44.760Z,1017.53
2018-09-27T16:30:44.647Z,1017.48
2018-09-27T16:31:44.630Z,1017.52
2018-09-27T16:32:44.640Z,1017.51
2018-09-27T16:33:44.599Z,1017.45
2018-09-27T16:34:44.593Z,1017.46
2018-09-27T16:35:44.692Z,1017.46
2018-09-27T16:36:44.585Z,1017.41
2018-09-27T16:37:44.594Z,1017.42
2018-09-27T16:38:44.555Z,1017.43
2018-09-27T16:39:44.532Z,1017.43
2018-09-27T16:40:44.562Z,1017.42
2018-09-27T16:41:44.628Z,1017.41
2018-09-27T16:42:44.496Z,1017.38
2018-09-27T16:43:44.502Z,1017.39
2018-09-27T16:44:44.473Z,1017.33
2018-09-27T16:45:44.479Z,1017.30
2018-09-27T16:46:44.509Z,1017.31
2018-09-27T16:47:44.514Z,1017.32
2018-09-27T16:48:44.466Z,1017.30
2018-09-27T16:49:44.419Z,1017.28
2018-09-27T16:50:44.416Z,1017.32
2018-09-27T16:51:44.412Z,1017.31
2018-09-27T16:52:44.385Z,1017.34
2018-09-27T16:53:44.557Z,1017.29
2018-09-27T16:54:44.374Z,1017.31
2018-09-27T16:55:44.368Z,1017.26
2018-09-27T16:56:44.358Z,1017.22
2018-09-27T16:57:44.351Z,1017.24
2018-09-27T16:58:44.364Z,1017.22
2018-09-27T16:59:52.253Z,1017.18
2018-09-27T17:00:44.293Z,1017.20
2018-09-27T17:01:44.307Z,1017.17
2018-09-27T17:02:44.271Z,1017.22
2018-09-27T17:03:44.262Z,1017.20
2018-09-27T17:04:44.278Z,1017.16
2018-09-27T17:05:44.269Z,1017.15
2018-09-27T17:06:44.229Z,1017.20
2018-09-27T17:07:44.222Z,1017.16
2018-09-27T17:08:44.208Z,1017.15
2018-09-27T17:09:44.202Z,1017.13
2018-09-27T17:10:44.199Z,1017.11
2018-09-27T17:11:44.172Z,1017.07
2018-09-27T17:12:44.160Z,1017.03
2018-09-27T17:13:44.152Z,1017.03
2018-09-27T17:14:44.141Z,1017.03
2018-09-27T17:15:44.149Z,1017.02
2018-09-27T17:16:44.175Z,1017.02
2018-09-27T17:17:44.152Z,1017.01
2018-09-27T17:18:44.107Z,1016.98
2018-09-27T17:19:44.094Z,1016.97
2018-09-27T17:20:44.097Z,1016.97
2018-09-27T17:21:44.059Z,1017.00
2018-09-27T17:22:44.123Z,1016.92
2018-09-27T17:23:44.113Z,1016.94
2018-09-27T17:24:44.182Z,1016.87
2018-09-27T17:25:44.015Z,1016.91
2018-09-27T17:26:44.024Z,1016.96
2018-09-27T17:27:43.996Z,1016.92
2018-09-27T17:28:44.028Z,1016.97
2018-09-27T17:29:44.035Z,1016.96
2018-09-27T17:30:43.971Z,1016.96
2018-09-27T17:31:44.088Z,1016.99
2018-09-27T17:32:43.936Z,1016.95
2018-09-27T17:33:43.926Z,1016.93
2018-09-27T17:34:43.975Z,1016.91
2018-09-27T17:35:44.083Z,1016.96
2018-09-27T17:36:43.914Z,1016.92
2018-09-27T17:37:43.942Z,1016.96
2018-09-27T17:38:43.868Z,1016.94
2018-09-27T17:39:43.857Z,1016.96
2018-09-27T17:40:43.907Z,1017.01
2018-09-27T17:41:43.853Z,1016.89
2018-09-27T17:42:43.842Z,1016.97
2018-09-27T17:43:43.956Z,1016.98
2018-09-27T17:44:43.810Z,1016.89
2018-09-27T17:45:43.819Z,1016.95
2018-09-27T17:46:43.869Z,1016.97
2018-09-27T17:47:43.784Z,1016.91
2018-09-27T17:48:43.762Z,1016.94
2018-09-27T17:49:43.842Z,1016.92
2018-09-27T17:50:43.737Z,1016.93
2018-09-27T17:51:43.728Z,1016.91
2018-09-27T17:52:43.824Z,1016.95
2018-09-27T17:53:43.703Z,1016.91
2018-09-27T17:54:43.693Z,1016.91
2018-09-27T17:55:43.877Z,1016.90
2018-09-27T17:56:43.669Z,1016.90
2018-09-27T17:57:43.658Z,1016.87
2018-09-27T17:58:43.784Z,1016.92
2018-09-27T17:59:43.635Z,1016.90
2018-09-27T18:00:43.624Z,1016.86
2018-09-27T18:01:43.650Z,1016.89
2018-09-27T18:02:43.603Z,1016.87
2018-09-27T18:03:43.604Z,1016.86
2018-09-27T18:04:43.679Z,1016.82
2018-09-27T18:05:43.586Z,1016.85
2018-09-27T18:06:43.560Z,1016.80
2018-09-27T18:07:43.618Z,1016.77
2018-09-27T18:08:43.563Z,1016.81
2018-09-27T18:09:43.528Z,1016.78
2018-09-27T18:10:43.578Z,1016.79
2018-09-27T18:11:43.525Z,1016.78
2018-09-27T18:12:43.495Z,1016.78
2018-09-27T18:13:43.537Z,1016.79
2018-09-27T18:14:43.492Z,1016.73
2018-09-27T18:15:43.459Z,1016.81
2018-09-27T18:16:43.658Z,1016.74
2018-09-27T18:17:43.502Z,1016.75
2018-09-27T18:18:43.424Z,1016.73
2018-09-27T18:19:43.506Z,1016.71
2018-09-27T18:20:43.410Z,1016.69
2018-09-27T18:21:43.419Z,1016.76
2018-09-27T18:22:43.451Z,1016.72
2018-09-27T18:23:43.375Z,1016.72
2018-09-27T18:24:43.374Z,1016.73
2018-09-27T18:25:43.430Z,1016.73
2018-09-27T18:26:43.348Z,1016.73
2018-09-27T18:27:43.373Z,1016.74
2018-09-27T18:28:43.374Z,1016.73
2018-09-27T18:29:43.325Z,1016.72
2018-09-27T18:30:43.293Z,1016.69
2018-09-27T18:31:43.306Z,1016.70
2018-09-27T18:32:43.274Z,1016.71
2018-09-27T18:33:43.259Z,1016.67
2018-09-27T18:34:43.369Z,1016.74
2018-09-27T18:35:43.254Z,1016.67
2018-09-27T18:36:43.225Z,1016.65
2018-09-27T18:37:43.241Z,1016.65
2018-09-27T18:38:43.206Z,1016.69
2018-09-27T18:39:43.195Z,1016.69
2018-09-27T18:40:43.198Z,1016.68
2018-09-27T18:41:43.172Z,1016.65
2018-09-27T18:42:43.160Z,1016.63
2018-09-27T18:43:43.149Z,1016.58
2018-09-27T18:44:43.137Z,1016.66
2018-09-27T18:45:43.139Z,1016.57
2018-09-27T18:46:43.117Z,1016.59
2018-09-27T18:47:43.106Z,1016.60
2018-09-27T18:48:43.093Z,1016.61
2018-09-27T18:49:43.083Z,1016.59
2018-09-27T18:50:43.098Z,1016.60
2018-09-27T18:51:43.063Z,1016.57
2018-09-27T18:52:43.049Z,1016.57
2018-09-27T18:53:43.039Z,1016.53
2018-09-27T18:54:43.033Z,1016.48
2018-09-27T18:55:43.016Z,1016.48
2018-09-27T18:56:43.017Z,1016.48
2018-09-27T18:57:43.055Z,1016.49
2018-09-27T18:58:43.019Z,1016.48
2018-09-27T18:59:42.972Z,1016.44
2018-09-27T19:00:42.961Z,1016.45
2018-09-27T19:01:42.967Z,1016.50
2018-09-27T19:02:42.941Z,1016.50
2018-09-27T19:03:42.927Z,1016.43
2018-09-27T19:04:42.916Z,1016.42
2018-09-27T19:05:42.907Z,1016.39
2018-09-27T19:06:42.918Z,1016.38
2018-09-27T19:07:42.883Z,1016.41
2018-09-27T19:08:42.872Z,1016.37
2018-09-27T19:09:42.861Z,1016.40
2018-09-27T19:10:42.850Z,1016.34
2018-09-27T19:11:42.853Z,1016.36
2018-09-27T19:12:42.840Z,1016.26
2018-09-27T19:13:42.823Z,1016.32
2018-09-27T19:14:42.808Z,1016.34
2018-09-27T19:15:42.794Z,1016.28
2018-09-27T19:16:42.883Z,1016.31
2018-09-27T19:17:42.790Z,1016.30
2018-09-27T19:18:42.761Z,1016.33
2018-09-27T19:19:42.752Z,1016.29
2018-09-27T19:20:42.740Z,1016.34
2018-09-27T19:21:42.728Z,1016.27
2018-09-27T19:22:42.758Z,1016.27
2018-09-27T19:23:42.707Z,1016.26
2018-09-27T19:24:42.695Z,1016.26
2018-09-27T19:25:42.684Z,1016.25
2018-09-27T19:26:42.674Z,1016.27
2018-09-27T19:27:42.678Z,1016.23
2018-09-27T19:28:42.663Z,1016.23
2018-09-27T19:29:42.643Z,1016.23
2018-09-27T19:30:42.633Z,1016.21
2018-09-27T19:31:42.620Z,1016.14
2018-09-27T19:32:42.607Z,1016.18
2018-09-27T19:33:42.610Z,1016.15
2018-09-27T19:34:42.585Z,1016.18
2018-09-27T19:35:42.575Z,1016.16
2018-09-27T19:36:42.563Z,1016.10
2018-09-27T19:37:42.551Z,1016.14
2018-09-27T19:38:42.561Z,1016.08
2018-09-27T19:39:42.529Z,1016.06
2018-09-27T19:40:42.517Z,1016.10
2018-09-27T19:41:42.508Z,1016.08
2018-09-27T19:42:42.497Z,1016.07
2018-09-27T19:43:42.484Z,1016.05
2018-09-27T19:44:42.486Z,1016.04
2018-09-27T19:45:42.462Z,1016.00
2018-09-27T19:46:42.551Z,1016.03
2018-09-27T19:47:42.441Z,1016.06
2018-09-27T19:48:42.430Z,1016.01
2018-09-27T19:49:42.434Z,1016.00
2018-09-27T19:50:42.407Z,1016.00
2018-09-27T19:51:42.402Z,1016.03
2018-09-27T19:52:42.392Z,1015.98
2018-09-27T19:53:42.374Z,1015.97
2018-09-27T19:54:42.386Z,1015.97
2018-09-27T19:55:42.353Z,1015.97
2018-09-27T19:56:42.344Z,1015.91
2018-09-27T19:57:42.332Z,1015.89
2018-09-27T19:58:42.321Z,1015.94
2018-09-27T19:59:42.311Z,1015.92
2018-09-27T20:00:42.311Z,1015.88
2018-09-27T20:01:42.302Z,1015.90
2018-09-27T20:02:42.372Z,1015.89
2018-09-27T20:03:42.263Z,1015.90
2018-09-27T20:04:42.409Z,1015.90
2018-09-27T20:05:42.261Z,1015.87
2018-09-27T20:06:42.230Z,1015.93
2018-09-27T20:07:42.221Z,1015.82
2018-09-27T20:08:42.208Z,1015.81
2018-09-27T20:09:42.200Z,1015.81
2018-09-27T20:10:42.212Z,1015.76
2018-09-27T20:11:42.175Z,1015.76
2018-09-27T20:12:42.165Z,1015.74
2018-09-27T20:13:42.155Z,1015.78
2018-09-27T20:14:42.149Z,1015.76
2018-09-27T20:15:42.171Z,1015.75
2018-09-27T20:16:42.216Z,1015.80
2018-09-27T20:17:42.109Z,1015.75
2018-09-27T20:18:42.100Z,1015.74
2018-09-27T20:19:42.086Z,1015.74
2018-09-27T20:20:42.075Z,1015.73
2018-09-27T20:21:42.079Z,1015.76
2018-09-27T20:22:42.065Z,1015.72
2018-09-27T20:23:42.047Z,1015.70
2018-09-27T20:24:42.036Z,1015.70
2018-09-27T20:25:42.020Z,1015.70
2018-09-27T20:26:42.033Z,1015.69
2018-09-27T20:27:41.997Z,1015.66
2018-09-27T20:28:41.987Z,1015.63
2018-09-27T20:29:41.976Z,1015.62
2018-09-27T20:30:41.968Z,1015.58
2018-09-27T20:31:41.982Z,1015.58
2018-09-27T20:32:41.949Z,1015.59
2018-09-27T20:33:41.938Z,1015.57
2018-09-27T20:34:41.992Z,1015.59
2018-09-27T20:35:41.909Z,1015.56
2018-09-27T20:36:41.899Z,1015.52
2018-09-27T20:37:41.904Z,1015.53
2018-09-27T20:38:41.876Z,1015.54
2018-09-27T20:39:41.865Z,1015.53
2018-09-27T20:40:41.857Z,1015.52
2018-09-27T20:41:41.846Z,1015.44
2018-09-27T20:42:41.848Z,1015.47
2018-09-27T20:43:41.823Z,1015.47
2018-09-27T20:44:41.810Z,1015.42
2018-09-27T20:45:41.799Z,1015.44
2018-09-27T20:46:41.789Z,1015.37
2018-09-27T20:47:41.874Z,1015.39
2018-09-27T20:48:41.767Z,1015.30
2018-09-27T20:49:41.754Z,1015.32
2018-09-27T20:50:41.743Z,1015.33
2018-09-27T20:51:41.733Z,1015.28
2018-09-27T20:52:41.743Z,1015.24
2018-09-27T20:53:41.713Z,1015.26
2018-09-27T20:54:41.698Z,1015.33
2018-09-27T20:55:41.689Z,1015.29
2018-09-27T20:56:41.678Z,1015.28
2018-09-27T20:57:41.666Z,1015.31
2018-09-27T20:58:41.669Z,1015.29
2018-09-27T20:59:41.645Z,1015.32
2018-09-27T21:00:41.636Z,1015.25
2018-09-27T21:01:41.622Z,1015.29
2018-09-27T21:02:41.611Z,1015.26
2018-09-27T21:03:41.643Z,1015.22
2018-09-27T21:04:41.589Z,1015.17
2018-09-27T21:05:41.577Z,1015.27
2018-09-27T21:06:41.569Z,1015.15
2018-09-27T21:07:41.556Z,1015.11
2018-09-27T21:08:41.568Z,1015.09
2018-09-27T21:09:41.535Z,1015.14
2018-09-27T21:10:41.524Z,1015.07
2018-09-27T21:11:41.511Z,1015.10
2018-09-27T21:12:41.503Z,1015.09
2018-09-27T21:13:41.490Z,1015.11
2018-09-27T21:14:41.490Z,1015.17
2018-09-27T21:15:41.467Z,1015.10
2018-09-27T21:16:41.459Z,1015.06
2018-09-27T21:17:41.445Z,1015.03
2018-09-27T21:18:41.440Z,1015.07
2018-09-27T21:19:41.440Z,1015.02
2018-09-27T21:20:41.414Z,1014.99
2018-09-27T21:21:41.402Z,1014.97
2018-09-27T21:22:41.390Z,1015.00
2018-09-27T21:23:41.379Z,1014.97
2018-09-27T21:24:41.380Z,1014.98
2018-09-27T21:25:41.361Z,1014.96
2018-09-27T21:26:41.348Z,1015.02
2018-09-27T21:27:41.334Z,1014.99
2018-09-27T21:28:41.324Z,1014.99
2018-09-27T21:29:41.334Z,1014.94
2018-09-27T21:30:41.307Z,1014.88
2018-09-27T21:31:41.291Z,1014.95